createdAt,value
2022-09-15T00:04:27.261Z,98833.64
2022-09-15T00:26:15.750Z,98806.59
2022-09-15T00:48:01.430Z,98778.34
2022-09-15T01:09:51.866Z,98796.92
2022-09-15T01:32:03.394Z,98796.24
2022-09-15T01:53:51.160Z,98783.27
2022-09-15T02:15:43.668Z,98782.96
2022-09-15T02:37:30.309Z,98803.27
2022-09-15T02:59:16.204Z,98811.71
2022-09-15T03:21:02.147Z,98814.02
2022-09-15T03:42:47.935Z,98847.89
2022-09-15T04:04:33.659Z,98892.95
2022-09-15T04:26:23.541Z,98904.05
2022-09-15T04:48:09.253Z,98923.15
2022-09-15T05:09:55.636Z,98943.40
2022-09-15T05:31:41.443Z,98952.48
2022-09-15T05:53:28.072Z,98972.54
2022-09-15T06:15:14.239Z,98968.23
2022-09-15T06:36:59.913Z,98978.55
2022-09-15T07:05:59.053Z,99001.08
2022-09-15T07:27:45.047Z,99026.25
2022-09-15T07:49:31.399Z,99047.83
2022-09-15T08:11:19.540Z,99084.36
2022-09-15T08:33:05.549Z,99103.52
2022-09-15T08:54:55.093Z,99085.54
2022-09-15T09:16:56.228Z,99058.46
2022-09-15T09:38:44.929Z,99052.23
2022-09-15T10:00:38.524Z,99059.79
2022-09-15T10:22:29.214Z,99054.49
2022-09-15T10:44:34.068Z,99040.08
2022-09-15T11:06:27.415Z,99031.45
2022-09-15T11:28:21.440Z,99022.87
2022-09-15T11:50:18.219Z,99011.38
2022-09-15T12:12:08.636Z,98998.00
2022-09-15T12:33:59.358Z,98996.52
2022-09-15T12:55:52.823Z,98979.46
2022-09-15T13:17:42.378Z,98969.63
2022-09-15T13:39:54.034Z,98962.61
2022-09-15T14:01:40.173Z,98955.89
2022-09-15T14:23:26.082Z,98948.77
2022-09-15T15:07:27.632Z,98943.20
2022-09-15T15:29:41.009Z,98936.91
2022-09-15T15:51:26.749Z,98938.20
2022-09-15T16:13:16.899Z,98947.41
2022-09-15T16:35:03.189Z,98958.81
2022-09-15T16:56:49.144Z,98971.92
2022-09-15T17:18:34.921Z,98983.75
2022-09-15T17:40:22.283Z,98993.73
2022-09-15T18:02:18.460Z,99003.96
2022-09-15T18:24:05.337Z,99023.50
2022-09-15T18:45:51.540Z,99033.39
2022-09-15T19:07:37.238Z,99050.92
2022-09-15T19:29:29.000Z,99071.11
2022-09-15T19:51:15.827Z,99080.92
2022-09-15T20:13:02.921Z,99083.38
2022-09-15T20:34:52.661Z,99092.98
2022-09-15T20:56:40.541Z,99094.94
2022-09-15T21:18:27.429Z,99098.11
2022-09-15T21:40:14.011Z,99110.27
2022-09-15T22:01:59.837Z,99119.39
2022-09-15T22:23:47.595Z,99140.39
2022-09-15T22:45:33.530Z,99159.59
2022-09-15T23:07:19.287Z,99170.57
2022-09-15T23:29:04.892Z,99169.56
2022-09-15T23:50:50.686Z,99169.97
